Charles Darwin — GDLS — position and weather

sailwx.info

Track history (hours):
 
Tides and Currents Weather Stations Pressure Air Temp Water Temp Dewpoint Dewpoint Depression Visibility Wind Speed Wind Dir Waves Ship Positions

Oceanographic research ship Charles Darwin (UK)

Detailed information on ship capabilities available from University of Delaware's Ocean Information Center.

Last reported at 2019-Dec-01 23:10 UTC. Time now 2019-Dec-15 10:16 UTC.
Position N 39°39' W 073°53'.
Warning: this ship's position is 13 days out of date.

Length 70 m; draft 5.6 m.

Type: Cargo ship. MMSI: 235011460.

Date/timePositionNaut miles runAvg speedWind from/ knotsBaromVisibWave heightAir tempDewpointWater temp
2019-Dec-01 23:10N 39°39' W 073°53'50 7.4
2019-Dec-01 16:24N 40°29' W 073°55'3 8.2
2019-Dec-01 16:00N 40°31' W 073°59'12 1.1
2019-Dec-01 04:38N 40°38' W 074°12'0 0.0
2019-Nov-30 22:37N 40°38' W 074°12'0 0.0
2019-Nov-30 21:19N 40°38' W 074°12'0 0.0
2019-Nov-30 20:11N 40°38' W 074°12'0 0.0
2019-Nov-30 18:58N 40°38' W 074°12'0 0.0
2019-Nov-30 12:29N 40°38' W 074°12'62 4.6
2019-Nov-29 23:00N 39°40' W 073°46'9 5.9
2019-Nov-29 21:30N 39°33' W 073°53'5 5.7
2019-Nov-29 20:39N 39°29' W 073°57'1 5.5
2019-Nov-29 20:30N 39°28' W 073°57'7 6.1
2019-Nov-29 19:19N 39°22' W 074°03'16 0.3
2019-Nov-27 16:23N 39°09' W 074°15'4 4.2
2019-Nov-27 15:29N 39°06' W 074°16'4 0.3
2019-Nov-27 03:14N 39°09' W 074°14'  
Track history (hours):
 
Tides and Currents Weather Stations Pressure Air Temp Water Temp Dewpoint Dewpoint Depression Visibility Wind Speed Wind Dir Waves Ship Positions

Oceanographic research ship Charles Darwin (UK)

Detailed information on ship capabilities available from University of Delaware's Ocean Information Center.

Last reported at 2019-Dec-01 23:10 UTC. Time now 2019-Dec-15 10:16 UTC.
Position N 39°39' W 073°53'.
Warning: this ship's position is 13 days out of date.

Length 70 m; draft 5.6 m.

Type: Cargo ship. MMSI: 235011460.

Date/timePositionNaut miles runAvg speedWind from/ knotsBaromVisibWave heightAir tempDewpointWater temp
2019-Dec-01 23:10N 39°39' W 073°53'50 7.4
2019-Dec-01 16:24N 40°29' W 073°55'3 8.2
2019-Dec-01 16:00N 40°31' W 073°59'12 1.1
2019-Dec-01 04:38N 40°38' W 074°12'0 0.0
2019-Nov-30 22:37N 40°38' W 074°12'0 0.0
2019-Nov-30 21:19N 40°38' W 074°12'0 0.0
2019-Nov-30 20:11N 40°38' W 074°12'0 0.0
2019-Nov-30 18:58N 40°38' W 074°12'0 0.0
2019-Nov-30 12:29N 40°38' W 074°12'62 4.6
2019-Nov-29 23:00N 39°40' W 073°46'9 5.9
2019-Nov-29 21:30N 39°33' W 073°53'5 5.7
2019-Nov-29 20:39N 39°29' W 073°57'1 5.5
2019-Nov-29 20:30N 39°28' W 073°57'7 6.1
2019-Nov-29 19:19N 39°22' W 074°03'16 0.3
2019-Nov-27 16:23N 39°09' W 074°15'4 4.2
2019-Nov-27 15:29N 39°06' W 074°16'4 0.3
2019-Nov-27 03:14N 39°09' W 074°14'  

Dump ship's entire track history